Pagrindinis puslapis
METAR-TAF:

METAR-TAF

Oro uostai :

Paro oro uostas

Timpu, Indija

platuma: 27-24-32N, ilguma: 89-25-14E, Aukštis: 2235 m

Dabartinis oras

Ataskaita buvo paskelbta 40 minutes, ne 09:00 UTC
Vėjas 20 kt iš Pietryčių
Temperatūra 18°C
Drėgmė 34%
Slėgis 1018 hPa
Matomumas 10 km arba daugiau
Išsisklaidę debesys ne aukštis 3000 ft
Su prošvaistėmis ne aukštis 7000 ft

METAR: VQPR 190900Z 13020KT 9999 SCT030 BKN070 18/02 Q1018

Laikas: 15:40 (09:40 UTC)


TAF: trūkstamas

Orai ataskaitas ir orų prognozės (METAR, TAF).

turimą stotys yra geltonos ir raudonos taškus žemėlapyje.

Perkelti pele per norėdami pamatyti stoties vardą.

Tada spustelėkite, norėdami matyti oro stebėjimo ir prognozės.

Norėdami pakeisti žemėlapį: spustelėkite ant žalios mygtukų su juodo kryžiaus žemyn,; žalią mygtuką su brūkšneliu, jei norite nutolinti; arba žalių rodyklių gretimoms žemėlapius.


METAR-TAF: